createdAt,value
2018-12-05T00:01:28.915Z,8.90
2018-12-05T00:04:06.888Z,7.05
2018-12-05T00:06:43.499Z,6.62
2018-12-05T00:09:19.575Z,6.45
2018-12-05T00:11:55.311Z,9.23
2018-12-05T00:14:30.598Z,8.63
2018-12-05T00:17:07.288Z,7.12
2018-12-05T00:19:43.982Z,6.42
2018-12-05T00:22:21.024Z,5.37
2018-12-05T00:24:56.853Z,6.03
2018-12-05T00:27:32.864Z,5.08
2018-12-05T00:30:09.420Z,6.87
2018-12-05T00:32:45.357Z,5.37
2018-12-05T00:35:21.200Z,6.22
2018-12-05T00:37:57.082Z,4.25
2018-12-05T00:40:33.074Z,5.58
2018-12-05T00:43:09.900Z,5.83
2018-12-05T00:45:46.634Z,7.85
2018-12-05T00:48:25.787Z,4.87
2018-12-05T00:51:02.441Z,7.05
2018-12-05T00:53:38.222Z,8.58
2018-12-05T00:56:14.247Z,7.45
2018-12-05T00:58:49.959Z,5.42
2018-12-05T01:01:25.798Z,6.58
2018-12-05T01:04:01.758Z,6.25
2018-12-05T01:06:37.615Z,5.50
2018-12-05T01:09:13.415Z,6.60
2018-12-05T01:11:49.432Z,5.60
2018-12-05T01:14:25.591Z,4.95
2018-12-05T01:17:02.102Z,7.53
2018-12-05T01:19:38.020Z,8.70
2018-12-05T01:22:13.768Z,6.58
2018-12-05T01:24:49.603Z,9.70
2018-12-05T01:27:25.364Z,6.53
2018-12-05T01:30:01.219Z,6.58
2018-12-05T01:32:37.018Z,9.03
2018-12-05T01:35:13.103Z,8.70
2018-12-05T01:37:49.670Z,7.92
2018-12-05T01:40:25.528Z,9.25
2018-12-05T01:43:01.267Z,6.10
2018-12-05T01:45:37.008Z,8.95
2018-12-05T01:48:12.833Z,8.30
2018-12-05T01:50:49.466Z,7.50
2018-12-05T01:53:25.146Z,6.12
2018-12-05T01:56:01.179Z,10.10
2018-12-05T01:58:37.937Z,6.20
2018-12-05T02:01:14.890Z,8.38
2018-12-05T02:03:50.666Z,7.35
2018-12-05T02:06:26.599Z,7.58
2018-12-05T02:09:02.941Z,9.25
2018-12-05T02:11:39.218Z,7.83
2018-12-05T02:14:15.163Z,11.10
2018-12-05T02:16:51.277Z,9.65
2018-12-05T02:19:27.839Z,11.08
2018-12-05T02:22:03.670Z,9.48
2018-12-05T02:24:39.484Z,9.58
2018-12-05T02:27:15.402Z,10.20
2018-12-05T02:29:56.678Z,10.32
2018-12-05T02:32:33.015Z,8.90
2018-12-05T02:35:08.768Z,11.22
2018-12-05T02:37:45.711Z,10.72
2018-12-05T02:40:21.631Z,10.08
2018-12-05T02:42:58.162Z,10.50
2018-12-05T02:45:35.982Z,11.97
2018-12-05T02:48:13.947Z,12.60
2018-12-05T02:50:49.941Z,13.20
2018-12-05T02:53:25.749Z,12.03
2018-12-05T02:56:00.793Z,12.35
2018-12-05T02:58:36.900Z,12.50
2018-12-05T03:01:12.798Z,13.62
2018-12-05T03:03:49.568Z,12.35
2018-12-05T03:06:25.273Z,11.90
2018-12-05T03:09:01.370Z,15.65
2018-12-05T03:11:39.324Z,11.78
2018-12-05T03:14:15.238Z,12.40
2018-12-05T03:16:52.093Z,12.78
2018-12-05T03:19:30.845Z,15.55
2018-12-05T03:22:07.146Z,13.35
2018-12-05T03:24:43.600Z,15.08
2018-12-05T03:27:19.612Z,13.00
2018-12-05T03:29:56.176Z,10.98
2018-12-05T03:32:34.196Z,16.67
2018-12-05T03:35:10.859Z,12.75
2018-12-05T03:37:46.837Z,13.60
2018-12-05T03:40:23.288Z,11.97
2018-12-05T03:42:59.257Z,11.80
2018-12-05T03:45:34.895Z,15.25
2018-12-05T03:48:10.707Z,14.05
2018-12-05T03:50:46.887Z,12.35
2018-12-05T03:53:23.668Z,12.05
2018-12-05T03:56:02.420Z,13.93
2018-12-05T03:58:38.227Z,12.50
2018-12-05T04:01:14.185Z,13.40
2018-12-05T04:03:49.890Z,12.15
2018-12-05T04:06:25.879Z,13.03
2018-12-05T04:09:01.479Z,13.62
2018-12-05T04:11:39.896Z,13.15
2018-12-05T04:14:16.425Z,13.85
2018-12-05T04:16:52.499Z,12.07
2018-12-05T04:19:29.495Z,12.07
2018-12-05T04:22:06.779Z,13.83
2018-12-05T04:24:43.191Z,11.95
2018-12-05T04:27:20.233Z,12.93
2018-12-05T04:29:56.948Z,10.85
2018-12-05T04:32:32.871Z,11.38
2018-12-05T04:35:08.600Z,13.90
2018-12-05T04:37:44.443Z,11.57
2018-12-05T04:40:20.452Z,16.23
2018-12-05T04:42:57.112Z,13.00
2018-12-05T04:45:35.301Z,10.30
2018-12-05T04:48:11.270Z,13.45
2018-12-05T04:50:46.287Z,12.03
2018-12-05T04:53:23.314Z,13.03
2018-12-05T04:56:00.112Z,13.45
2018-12-05T04:58:37.056Z,14.45
2018-12-05T05:01:12.958Z,13.22
2018-12-05T05:03:48.609Z,11.40
2018-12-05T05:06:25.418Z,13.62
2018-12-05T05:09:01.257Z,14.45
2018-12-05T05:11:38.082Z,13.95
2018-12-05T05:14:13.896Z,14.20
2018-12-05T05:16:49.093Z,15.13
2018-12-05T05:19:25.847Z,14.87
2018-12-05T05:22:01.772Z,14.35
2018-12-05T05:24:37.566Z,14.83
2018-12-05T05:27:15.695Z,13.20
2018-12-05T05:29:52.517Z,16.73
2018-12-05T05:32:28.619Z,13.85
2018-12-05T05:35:05.443Z,12.78
2018-12-05T05:37:41.199Z,14.20
2018-12-05T05:40:17.432Z,17.25
2018-12-05T05:42:53.971Z,17.98
2018-12-05T05:45:29.799Z,16.37
2018-12-05T05:48:05.860Z,18.40
2018-12-05T05:50:41.643Z,18.37
2018-12-05T05:53:17.400Z,18.20
2018-12-05T05:55:53.425Z,14.87
2018-12-05T05:58:30.121Z,16.30
2018-12-05T06:01:06.108Z,17.35
2018-12-05T06:03:41.940Z,15.60
2018-12-05T06:06:17.943Z,15.88
2018-12-05T06:08:53.681Z,16.23
2018-12-05T06:11:30.104Z,18.15
2018-12-05T06:14:06.674Z,18.37
2018-12-05T06:16:41.745Z,19.45
2018-12-05T06:19:17.419Z,22.90
2018-12-05T06:21:53.232Z,22.77
2018-12-05T06:24:30.833Z,19.60
2018-12-05T06:27:07.142Z,21.35
2018-12-05T06:29:43.927Z,21.15
2018-12-05T06:32:21.294Z,17.73
2018-12-05T06:34:58.099Z,20.50
2018-12-05T06:37:34.723Z,17.52
2018-12-05T06:40:10.478Z,18.42
2018-12-05T06:42:46.469Z,17.55
2018-12-05T06:45:22.480Z,16.20
2018-12-05T06:47:58.462Z,16.15
2018-12-05T06:50:35.105Z,20.15
2018-12-05T06:53:10.774Z,16.45
2018-12-05T06:55:46.480Z,19.42
2018-12-05T06:58:22.292Z,17.90
2018-12-05T07:00:58.266Z,20.17
2018-12-05T07:03:34.290Z,17.05
2018-12-05T07:06:10.251Z,20.25
2018-12-05T07:08:46.863Z,17.92
2018-12-05T07:11:22.834Z,15.20
2018-12-05T07:13:57.743Z,18.57
2018-12-05T07:16:33.592Z,22.30
2018-12-05T07:19:09.545Z,20.60
2018-12-05T07:21:45.310Z,20.80
2018-12-05T07:24:22.479Z,17.48
2018-12-05T07:26:58.405Z,17.02
2018-12-05T07:29:34.260Z,18.45
2018-12-05T07:32:09.948Z,14.47
2018-12-05T07:34:45.861Z,17.02
2018-12-05T07:37:21.534Z,18.98
2018-12-05T07:39:57.796Z,16.82
2018-12-05T07:42:34.376Z,16.93
2018-12-05T07:45:10.129Z,22.17
2018-12-05T07:47:46.014Z,20.02
2018-12-05T07:50:21.743Z,18.20
2018-12-05T07:52:59.434Z,18.55
2018-12-05T07:55:35.198Z,17.07
2018-12-05T07:58:11.188Z,18.10
2018-12-05T08:00:46.881Z,15.50
2018-12-05T08:03:24.147Z,18.62
2018-12-05T08:06:00.692Z,18.17
2018-12-05T08:08:36.474Z,16.75
2018-12-05T08:11:12.343Z,16.87
2018-12-05T08:13:48.203Z,14.28
2018-12-05T08:16:24.220Z,18.70
2018-12-05T08:19:00.641Z,18.48
2018-12-05T08:21:36.422Z,15.98
2018-12-05T08:24:12.401Z,18.98
2018-12-05T08:26:48.251Z,16.17
2018-12-05T08:29:24.203Z,14.73
2018-12-05T08:31:59.967Z,14.43
2018-12-05T08:34:36.118Z,18.52
2018-12-05T08:37:12.629Z,15.93
2018-12-05T08:39:48.520Z,18.75
2018-12-05T08:42:24.459Z,20.43
2018-12-05T08:45:00.790Z,13.25
2018-12-05T08:47:37.059Z,19.75
2018-12-05T08:50:12.992Z,17.10
2018-12-05T08:52:48.744Z,13.40
2018-12-05T08:55:26.562Z,16.25
2018-12-05T08:58:03.326Z,17.98
2018-12-05T09:00:39.542Z,14.15
2018-12-05T09:03:16.072Z,15.18
2018-12-05T09:05:53.108Z,21.23
2018-12-05T09:08:28.771Z,16.00
2018-12-05T09:11:04.959Z,14.58
2018-12-05T09:13:41.463Z,12.68
2018-12-05T09:16:17.378Z,13.60
2018-12-05T09:18:53.184Z,14.38
2018-12-05T09:21:30.118Z,12.15
2018-12-05T09:24:06.283Z,10.50
2018-12-05T09:26:43.017Z,13.95
2018-12-05T09:29:17.999Z,12.88
2018-12-05T09:31:53.150Z,14.13
2018-12-05T09:34:30.086Z,12.45
2018-12-05T09:37:06.778Z,12.80
2018-12-05T09:39:42.915Z,12.15
2018-12-05T09:42:19.570Z,12.65
2018-12-05T09:44:55.566Z,11.38
2018-12-05T09:47:31.280Z,12.10
2018-12-05T09:50:07.521Z,13.70
2018-12-05T09:52:43.845Z,16.05
2018-12-05T09:55:20.235Z,13.20
2018-12-05T09:57:57.419Z,12.78
2018-12-05T10:00:34.082Z,11.60
2018-12-05T10:03:10.629Z,9.78
2018-12-05T10:05:47.547Z,12.88
2018-12-05T10:08:24.087Z,11.25
2018-12-05T10:11:00.714Z,11.63
2018-12-05T10:13:37.179Z,12.68
2018-12-05T10:16:12.811Z,14.23
2018-12-05T10:18:47.623Z,10.90
2018-12-05T10:21:23.433Z,15.50
2018-12-05T10:24:00.163Z,13.18
2018-12-05T10:26:36.150Z,13.90
2018-12-05T10:29:12.971Z,12.50
2018-12-05T10:38:45.679Z,12.07
2018-12-05T10:41:23.547Z,12.28
2018-12-05T10:43:59.310Z,16.48
2018-12-05T10:46:34.375Z,15.40
2018-12-05T10:49:09.427Z,18.05
2018-12-05T10:51:45.355Z,12.28
2018-12-05T10:54:21.075Z,15.45
2018-12-05T10:56:56.839Z,13.83
2018-12-05T10:59:32.514Z,14.83
2018-12-05T11:02:13.782Z,13.78
2018-12-05T11:04:54.881Z,14.18
2018-12-05T11:08:37.212Z,13.98
2018-12-05T11:11:18.516Z,12.33
2018-12-05T11:14:01.505Z,13.55
2018-12-05T11:16:43.207Z,13.53
2018-12-05T11:19:25.107Z,12.53
2018-12-05T11:22:06.831Z,12.47
2018-12-05T11:24:43.355Z,12.70
2018-12-05T11:27:19.555Z,12.15
2018-12-05T11:29:55.404Z,15.13
2018-12-05T11:32:31.433Z,13.18
2018-12-05T11:35:06.551Z,14.78
2018-12-05T11:37:42.220Z,13.25
2018-12-05T11:40:18.407Z,12.58
2018-12-05T11:42:55.846Z,13.03
2018-12-05T11:45:31.712Z,15.83
2018-12-05T11:48:07.632Z,16.00
2018-12-05T11:50:43.522Z,14.33
2018-12-05T11:53:19.210Z,14.20
2018-12-05T11:55:55.130Z,14.53
2018-12-05T11:58:31.107Z,13.68
2018-12-05T12:01:07.864Z,12.88
2018-12-05T12:03:43.777Z,12.78
2018-12-05T12:06:20.998Z,12.15
2018-12-05T12:08:56.777Z,12.00
2018-12-05T12:11:32.417Z,12.95
2018-12-05T12:14:08.395Z,11.75
2018-12-05T12:16:44.052Z,11.22
2018-12-05T12:19:20.023Z,12.28
2018-12-05T12:21:55.874Z,12.60
2018-12-05T12:24:34.809Z,14.98
2018-12-05T12:27:09.705Z,11.53
2018-12-05T12:29:46.363Z,17.25
2018-12-05T12:32:22.155Z,12.05
2018-12-05T12:34:58.098Z,12.43
2018-12-05T12:37:33.373Z,12.47
2018-12-05T12:40:10.056Z,11.78
2018-12-05T12:42:46.733Z,15.00
2018-12-05T12:46:51.711Z,16.23
2018-12-05T12:49:27.650Z,14.23
2018-12-05T12:52:03.696Z,12.03
2018-12-05T12:54:39.290Z,12.68
2018-12-05T12:57:15.257Z,14.00
2018-12-05T12:59:51.135Z,13.08
2018-12-05T13:02:26.895Z,13.65
2018-12-05T13:05:02.665Z,17.50
2018-12-05T13:07:38.476Z,11.30
2018-12-05T13:10:14.391Z,13.68
2018-12-05T13:12:54.335Z,14.30
2018-12-05T13:15:30.725Z,15.00
2018-12-05T13:18:06.642Z,14.03
2018-12-05T13:20:42.731Z,11.75
2018-12-05T13:23:18.479Z,13.28
2018-12-05T13:25:54.400Z,13.80
2018-12-05T13:28:30.154Z,15.68
2018-12-05T13:31:06.028Z,17.98
2018-12-05T13:33:41.866Z,12.43
2018-12-05T13:36:17.804Z,16.48
2018-12-05T13:38:53.423Z,15.85
2018-12-05T13:41:29.520Z,15.15
2018-12-05T13:44:05.296Z,16.52
2018-12-05T13:46:41.223Z,16.95
2018-12-05T13:49:17.126Z,15.78
2018-12-05T13:51:53.098Z,17.92
2018-12-05T13:54:28.833Z,18.20
2018-12-05T13:57:04.861Z,17.67
2018-12-05T13:59:40.706Z,17.05
2018-12-05T14:02:16.492Z,15.65
2018-12-05T14:04:52.338Z,19.40
2018-12-05T14:07:28.295Z,17.95
2018-12-05T14:10:04.921Z,16.57
2018-12-05T14:12:41.123Z,17.92
2018-12-05T14:15:17.124Z,20.27
2018-12-05T14:18:01.034Z,19.05
2018-12-05T14:20:31.367Z,19.57
2018-12-05T14:23:07.392Z,18.40
2018-12-05T14:25:43.363Z,23.15
2018-12-05T14:28:19.902Z,23.90
2018-12-05T14:30:55.799Z,23.83
2018-12-05T14:33:32.790Z,21.65
2018-12-05T14:36:09.519Z,23.02
2018-12-05T14:38:46.183Z,23.42
2018-12-05T14:41:21.948Z,23.50
2018-12-05T14:43:58.126Z,24.02
2018-12-05T14:46:34.762Z,22.98
2018-12-05T14:49:10.745Z,23.05
2018-12-05T14:51:47.332Z,23.12
2018-12-05T14:54:23.166Z,22.27
2018-12-05T14:56:59.150Z,22.80
2018-12-05T14:59:34.977Z,26.65
2018-12-05T15:02:11.291Z,28.92
2018-12-05T15:04:47.890Z,26.55
2018-12-05T15:07:23.878Z,27.42
2018-12-05T15:10:00.881Z,26.90
2018-12-05T15:12:36.590Z,27.30
2018-12-05T15:15:16.375Z,26.33
2018-12-05T15:17:52.184Z,27.77
2018-12-05T15:20:28.245Z,32.42
2018-12-05T15:23:04.114Z,25.27
2018-12-05T15:25:39.862Z,30.23
2018-12-05T15:28:15.571Z,30.68
2018-12-05T15:30:51.299Z,28.67
2018-12-05T15:33:27.169Z,31.93
2018-12-05T15:36:03.086Z,29.72
2018-12-05T15:38:39.021Z,29.57
2018-12-05T15:41:15.104Z,30.75
2018-12-05T15:43:51.066Z,30.70
2018-12-05T15:46:26.990Z,33.50
2018-12-05T15:49:02.745Z,30.43
2018-12-05T15:51:38.622Z,30.77
2018-12-05T15:54:14.790Z,34.70
2018-12-05T15:56:50.699Z,32.98
2018-12-05T15:59:26.445Z,30.92
2018-12-05T16:02:04.180Z,30.75
2018-12-05T16:04:41.840Z,35.68
2018-12-05T16:07:17.935Z,31.90
2018-12-05T16:09:53.827Z,37.53
2018-12-05T16:12:30.388Z,30.48
2018-12-05T16:15:07.715Z,31.07
2018-12-05T16:17:44.226Z,40.20
2018-12-05T16:20:20.185Z,34.18
2018-12-05T16:22:56.094Z,38.78
2018-12-05T16:25:31.763Z,36.63
2018-12-05T16:28:07.569Z,35.95
2018-12-05T16:30:43.447Z,33.63
2018-12-05T16:33:19.341Z,31.07
2018-12-05T16:35:55.446Z,33.30
2018-12-05T16:38:31.189Z,34.83
2018-12-05T16:41:07.232Z,30.82
2018-12-05T16:43:43.233Z,30.80
2018-12-05T16:46:19.734Z,36.25
2018-12-05T16:48:55.563Z,32.48
2018-12-05T16:51:31.452Z,32.78
2018-12-05T16:54:07.278Z,34.80
2018-12-05T16:56:43.004Z,38.13
2018-12-05T16:59:18.861Z,36.03
2018-12-05T17:01:54.647Z,33.55
2018-12-05T17:04:31.440Z,36.60
2018-12-05T17:07:06.871Z,31.55
2018-12-05T17:09:42.851Z,36.15
2018-12-05T17:12:19.039Z,36.40
2018-12-05T17:14:54.855Z,39.80
2018-12-05T17:17:30.736Z,38.25
2018-12-05T17:20:07.504Z,42.48
2018-12-05T17:22:44.188Z,39.73
2018-12-05T17:25:20.428Z,36.63
2018-12-05T17:27:56.759Z,37.42
2018-12-05T17:30:32.654Z,41.75
2018-12-05T17:33:08.348Z,33.80
2018-12-05T17:35:44.052Z,36.00
2018-12-05T17:38:19.862Z,37.42
2018-12-05T17:40:56.074Z,36.13
2018-12-05T17:43:31.971Z,37.45
2018-12-05T17:46:08.670Z,33.38
2018-12-05T17:48:44.567Z,30.68
2018-12-05T17:51:20.435Z,37.25
2018-12-05T17:53:57.379Z,34.65
2018-12-05T17:56:35.048Z,33.42
2018-12-05T17:59:11.973Z,33.95
2018-12-05T18:01:47.862Z,36.03
2018-12-05T18:04:23.972Z,34.30
2018-12-05T18:06:59.895Z,32.40
2018-12-05T18:09:36.699Z,34.53
2018-12-05T18:12:13.482Z,32.63
2018-12-05T18:14:49.203Z,33.85
2018-12-05T18:17:25.832Z,31.37
2018-12-05T18:20:02.070Z,31.97
2018-12-05T18:22:38.898Z,28.75
2018-12-05T18:25:14.568Z,31.85
2018-12-05T18:27:50.359Z,27.27
2018-12-05T18:30:26.633Z,23.07
2018-12-05T18:33:03.262Z,27.95
2018-12-05T18:35:39.846Z,25.27
2018-12-05T18:38:16.951Z,29.67
2018-12-05T18:40:52.651Z,26.17
2018-12-05T18:43:28.707Z,27.60
2018-12-05T18:46:04.600Z,25.95
2018-12-05T18:48:40.199Z,30.15
2018-12-05T18:51:15.950Z,29.30
2018-12-05T18:53:51.758Z,29.65
2018-12-05T18:56:28.547Z,30.40
2018-12-05T18:59:04.509Z,31.20
2018-12-05T19:01:40.242Z,29.25
2018-12-05T19:04:16.018Z,31.15
2018-12-05T19:06:51.932Z,30.02
2018-12-05T19:09:27.619Z,29.92
2018-12-05T19:12:03.371Z,28.47
2018-12-05T19:14:44.315Z,28.83
2018-12-05T19:17:21.166Z,27.07
2018-12-05T19:19:58.331Z,27.85
2018-12-05T19:22:35.016Z,29.65
2018-12-05T19:25:10.980Z,27.02
2018-12-05T19:27:48.077Z,25.25
2018-12-05T19:30:24.667Z,27.77
2018-12-05T19:33:01.510Z,28.95
2018-12-05T19:35:37.542Z,26.07
2018-12-05T19:38:14.231Z,23.32
2018-12-05T19:40:50.191Z,26.85
2018-12-05T19:43:26.046Z,26.85
2018-12-05T19:46:02.943Z,23.47
2018-12-05T19:48:39.910Z,24.98
2018-12-05T19:51:15.470Z,23.32
2018-12-05T19:53:51.134Z,24.23
2018-12-05T19:56:27.060Z,20.90
2018-12-05T19:59:02.860Z,23.05
2018-12-05T20:01:38.744Z,24.43
2018-12-05T20:04:14.803Z,21.45
2018-12-05T20:06:50.512Z,22.45
2018-12-05T20:09:26.296Z,24.90
2018-12-05T20:12:02.210Z,25.35
2018-12-05T20:14:37.103Z,22.35
2018-12-05T20:17:12.758Z,24.35
2018-12-05T20:19:49.947Z,22.60
2018-12-05T20:22:25.611Z,23.18
2018-12-05T20:25:01.386Z,21.57
2018-12-05T20:27:38.092Z,26.75
2018-12-05T20:30:13.075Z,20.50
2018-12-05T20:32:48.786Z,19.20
2018-12-05T20:35:24.775Z,20.92
2018-12-05T20:38:00.838Z,22.42
2018-12-05T20:40:36.703Z,17.27
2018-12-05T20:43:13.266Z,19.87
2018-12-05T20:45:49.556Z,23.07
2018-12-05T20:48:25.547Z,25.65
2018-12-05T20:51:02.160Z,22.22
2018-12-05T20:53:38.157Z,22.13
2018-12-05T20:56:14.067Z,20.65
2018-12-05T20:58:49.955Z,19.77
2018-12-05T21:01:26.854Z,24.30
2018-12-05T21:04:03.155Z,22.48
2018-12-05T21:06:38.949Z,19.67
2018-12-05T21:09:14.774Z,21.82
2018-12-05T21:11:51.516Z,22.73
2018-12-05T21:14:27.313Z,23.35
2018-12-05T21:17:03.174Z,19.15
2018-12-05T21:19:38.958Z,23.92
2018-12-05T21:22:14.820Z,20.12
2018-12-05T21:24:52.762Z,21.52
2018-12-05T21:27:29.428Z,27.87
2018-12-05T21:30:06.335Z,26.27
2018-12-05T21:32:43.614Z,30.65
2018-12-05T21:35:19.759Z,28.35
2018-12-05T21:37:55.375Z,25.12
2018-12-05T21:40:30.315Z,24.77
2018-12-05T21:43:06.959Z,27.60
2018-12-05T21:45:42.782Z,25.30
2018-12-05T21:48:18.830Z,28.62
2018-12-05T21:50:54.508Z,28.85
2018-12-05T21:53:30.422Z,27.70
2018-12-05T21:56:06.353Z,27.87
2018-12-05T21:58:42.734Z,24.30
2018-12-05T22:01:19.255Z,26.27
2018-12-05T22:03:54.954Z,25.50
2018-12-05T22:06:30.594Z,25.92
2018-12-05T22:09:09.447Z,28.60
2018-12-05T22:11:45.527Z,23.47
2018-12-05T22:14:22.162Z,27.13
2018-12-05T22:16:58.165Z,27.67
2018-12-05T22:19:34.131Z,28.35
2018-12-05T22:22:09.827Z,28.20
2018-12-05T22:24:45.506Z,28.77
2018-12-05T22:27:21.223Z,30.75
2018-12-05T22:29:57.223Z,26.95
2018-12-05T22:32:33.187Z,27.37
2018-12-05T22:35:09.055Z,28.57
2018-12-05T22:37:44.884Z,29.18
2018-12-05T22:40:20.659Z,25.75
2018-12-05T22:42:56.464Z,31.40
2018-12-05T22:45:32.322Z,30.17
2018-12-05T22:48:08.125Z,27.02
2018-12-05T22:50:43.924Z,25.55
2018-12-05T22:53:19.713Z,26.75
2018-12-05T22:55:55.764Z,29.57
2018-12-05T22:58:32.346Z,29.27
2018-12-05T23:01:08.476Z,27.13
2018-12-05T23:03:45.485Z,34.05
2018-12-05T23:06:23.282Z,29.63
2018-12-05T23:09:01.134Z,29.70
2018-12-05T23:11:39.938Z,30.85
2018-12-05T23:14:15.750Z,30.32
2018-12-05T23:16:51.883Z,27.22
2018-12-05T23:19:29.318Z,30.15
2018-12-05T23:22:05.636Z,31.50
2018-12-05T23:24:42.150Z,28.95
2018-12-05T23:27:17.953Z,32.80
2018-12-05T23:29:53.697Z,30.23
2018-12-05T23:32:30.447Z,34.08
2018-12-05T23:35:06.481Z,29.15
2018-12-05T23:37:42.183Z,33.65
2018-12-05T23:40:18.292Z,32.60
2018-12-05T23:42:54.240Z,29.12
2018-12-05T23:45:31.002Z,31.10
2018-12-05T23:48:06.978Z,34.60
2018-12-05T23:50:43.251Z,31.95
2018-12-05T23:53:19.922Z,33.33
2018-12-05T23:55:56.082Z,34.50
2018-12-05T23:58:31.978Z,31.95
